sensor_id;sensor_type;location;lat;lon;timestamp;temperature;humidity
30473;DHT22;17263;48.160;11.452;2023-02-15T00:01:54;0.50;99.90
30473;DHT22;17263;48.160;11.452;2023-02-15T00:04:22;0.50;99.90
30473;DHT22;17263;48.160;11.452;2023-02-15T00:06:49;0.50;99.90
30473;DHT22;17263;48.160;11.452;2023-02-15T00:09:16;0.50;99.90
30473;DHT22;17263;48.160;11.452;2023-02-15T00:11:42;0.50;99.90
30473;DHT22;17263;48.160;11.452;2023-02-15T00:14:16;0.50;99.90
30473;DHT22;17263;48.160;11.452;2023-02-15T00:16:43;0.50;99.90
30473;DHT22;17263;48.160;11.452;2023-02-15T00:19:11;0.50;99.90
30473;DHT22;17263;48.160;11.452;2023-02-15T00:21:39;0.40;99.90
30473;DHT22;17263;48.160;11.452;2023-02-15T00:24:07;0.40;99.90
30473;DHT22;17263;48.160;11.452;2023-02-15T00:26:34;0.40;99.90
30473;DHT22;17263;48.160;11.452;2023-02-15T00:29:00;0.50;99.90
30473;DHT22;17263;48.160;11.452;2023-02-15T00:31:29;0.50;99.90
30473;DHT22;17263;48.160;11.452;2023-02-15T00:34:01;0.50;99.90
30473;DHT22;17263;48.160;11.452;2023-02-15T00:36:27;0.50;99.90
30473;DHT22;17263;48.160;11.452;2023-02-15T00:38:53;0.50;99.90
30473;DHT22;17263;48.160;11.452;2023-02-15T00:41:19;0.50;99.90
30473;DHT22;17263;48.160;11.452;2023-02-15T00:43:45;0.40;99.90
30473;DHT22;17263;48.160;11.452;2023-02-15T00:46:11;0.40;99.90
30473;DHT22;17263;48.160;11.452;2023-02-15T00:48:37;0.40;99.90
30473;DHT22;17263;48.160;11.452;2023-02-15T00:51:03;0.40;99.90
30473;DHT22;17263;48.160;11.452;2023-02-15T00:53:30;0.40;99.90
30473;DHT22;17263;48.160;11.452;2023-02-15T00:55:57;0.40;99.90
30473;DHT22;17263;48.160;11.452;2023-02-15T00:58:24;0.40;99.90
30473;DHT22;17263;48.160;11.452;2023-02-15T01:00:50;0.40;99.90
30473;DHT22;17263;48.160;11.452;2023-02-15T01:03:17;0.30;99.90
30473;DHT22;17263;48.160;11.452;2023-02-15T01:05:44;0.30;99.90
30473;DHT22;17263;48.160;11.452;2023-02-15T01:08:10;0.40;99.90
30473;DHT22;17263;48.160;11.452;2023-02-15T01:10:36;0.30;99.90
30473;DHT22;17263;48.160;11.452;2023-02-15T01:13:03;0.30;99.90
30473;DHT22;17263;48.160;11.452;2023-02-15T01:15:29;0.30;99.90
30473;DHT22;17263;48.160;11.452;2023-02-15T01:17:55;0.30;99.90
30473;DHT22;17263;48.160;11.452;2023-02-15T01:20:25;0.30;99.90
30473;DHT22;17263;48.160;11.452;2023-02-15T01:22:52;0.30;99.90
30473;DHT22;17263;48.160;11.452;2023-02-15T01:25:20;0.30;99.90
30473;DHT22;17263;48.160;11.452;2023-02-15T01:27:46;0.30;99.90
30473;DHT22;17263;48.160;11.452;2023-02-15T01:30:13;0.30;99.90
30473;DHT22;17263;48.160;11.452;2023-02-15T01:32:41;0.30;99.90
30473;DHT22;17263;48.160;11.452;2023-02-15T01:35:08;0.30;99.90
30473;DHT22;17263;48.160;11.452;2023-02-15T01:37:35;0.20;99.90
30473;DHT22;17263;48.160;11.452;2023-02-15T01:40:03;0.20;99.90
30473;DHT22;17263;48.160;11.452;2023-02-15T01:42:30;0.20;99.90
30473;DHT22;17263;48.160;11.452;2023-02-15T01:44:58;0.20;99.90
30473;DHT22;17263;48.160;11.452;2023-02-15T01:52:30;0.10;99.90
30473;DHT22;17263;48.160;11.452;2023-02-15T01:54:56;0.10;99.90
30473;DHT22;17263;48.160;11.452;2023-02-15T01:57:24;0.10;99.90
30473;DHT22;17263;48.160;11.452;2023-02-15T01:59:56;0.10;99.90
30473;DHT22;17263;48.160;11.452;2023-02-15T02:02:25;0.10;99.90
30473;DHT22;17263;48.160;11.452;2023-02-15T02:04:53;0.00;99.90
30473;DHT22;17263;48.160;11.452;2023-02-15T02:07:24;0.00;99.90
30473;DHT22;17263;48.160;11.452;2023-02-15T02:09:52;0.00;99.90
30473;DHT22;17263;48.160;11.452;2023-02-15T02:12:18;0.00;99.90
30473;DHT22;17263;48.160;11.452;2023-02-15T02:14:48;0.00;99.90
30473;DHT22;17263;48.160;11.452;2023-02-15T02:17:35;-0.10;99.90
30473;DHT22;17263;48.160;11.452;2023-02-15T02:20:11;0.00;99.90
30473;DHT22;17263;48.160;11.452;2023-02-15T02:25:46;0.00;99.90
30473;DHT22;17263;48.160;11.452;2023-02-15T02:28:38;-0.10;99.90
30473;DHT22;17263;48.160;11.452;2023-02-15T02:31:17;-0.10;99.90
30473;DHT22;17263;48.160;11.452;2023-02-15T02:33:50;0.00;99.90
30473;DHT22;17263;48.160;11.452;2023-02-15T02:47:48;0.00;99.90
30473;DHT22;17263;48.160;11.452;2023-02-15T02:50:21;0.00;99.90
30473;DHT22;17263;48.160;11.452;2023-02-15T02:52:50;0.00;99.90
30473;DHT22;17263;48.160;11.452;2023-02-15T02:55:41;0.00;99.90
30473;DHT22;17263;48.160;11.452;2023-02-15T02:58:16;0.00;99.90
30473;DHT22;17263;48.160;11.452;2023-02-15T03:03:25;0.00;99.90
30473;DHT22;17263;48.160;11.452;2023-02-15T03:05:55;0.10;99.90
30473;DHT22;17263;48.160;11.452;2023-02-15T03:08:26;0.20;99.90
30473;DHT22;17263;48.160;11.452;2023-02-15T03:10:56;0.30;99.90
30473;DHT22;17263;48.160;11.452;2023-02-15T03:13:23;0.10;99.90
30473;DHT22;17263;48.160;11.452;2023-02-15T03:15:50;0.00;99.90
30473;DHT22;17263;48.160;11.452;2023-02-15T03:18:47;-0.10;99.90
30473;DHT22;17263;48.160;11.452;2023-02-15T03:21:27;-0.10;99.90
30473;DHT22;17263;48.160;11.452;2023-02-15T03:24:07;0.00;99.90
30473;DHT22;17263;48.160;11.452;2023-02-15T03:26:34;0.00;99.90
30473;DHT22;17263;48.160;11.452;2023-02-15T03:29:03;-0.10;99.90
30473;DHT22;17263;48.160;11.452;2023-02-15T03:31:33;-0.20;99.90
30473;DHT22;17263;48.160;11.452;2023-02-15T03:34:04;-0.10;99.90
30473;DHT22;17263;48.160;11.452;2023-02-15T03:42:27;-0.10;99.90
30473;DHT22;17263;48.160;11.452;2023-02-15T03:45:03;-0.10;99.90
30473;DHT22;17263;48.160;11.452;2023-02-15T03:47:32;-0.10;99.90
30473;DHT22;17263;48.160;11.452;2023-02-15T03:50:08;-0.10;99.90
30473;DHT22;17263;48.160;11.452;2023-02-15T03:52:56;-0.20;99.90
30473;DHT22;17263;48.160;11.452;2023-02-15T03:55:24;-0.20;99.90
30473;DHT22;17263;48.160;11.452;2023-02-15T03:57:50;-0.20;99.90
30473;DHT22;17263;48.160;11.452;2023-02-15T04:00:38;-0.10;99.90
30473;DHT22;17263;48.160;11.452;2023-02-15T04:03:36;-0.20;99.90
30473;DHT22;17263;48.160;11.452;2023-02-15T04:06:04;-0.20;99.90
30473;DHT22;17263;48.160;11.452;2023-02-15T04:08:30;-0.10;99.90
30473;DHT22;17263;48.160;11.452;2023-02-15T04:11:14;-0.10;99.90
30473;DHT22;17263;48.160;11.452;2023-02-15T04:13:41;-0.20;99.90
30473;DHT22;17263;48.160;11.452;2023-02-15T04:16:07;-0.20;99.90
30473;DHT22;17263;48.160;11.452;2023-02-15T04:18:37;-0.30;99.90
30473;DHT22;17263;48.160;11.452;2023-02-15T04:21:23;-0.20;99.90
30473;DHT22;17263;48.160;11.452;2023-02-15T04:24:08;-0.20;99.90
30473;DHT22;17263;48.160;11.452;2023-02-15T04:26:53;-0.20;99.90
30473;DHT22;17263;48.160;11.452;2023-02-15T04:29:21;-0.20;99.90
30473;DHT22;17263;48.160;11.452;2023-02-15T04:31:47;-0.20;99.90
30473;DHT22;17263;48.160;11.452;2023-02-15T04:34:14;-0.20;99.90
30473;DHT22;17263;48.160;11.452;2023-02-15T04:36:40;-0.20;99.90
30473;DHT22;17263;48.160;11.452;2023-02-15T04:39:07;-0.30;99.90
30473;DHT22;17263;48.160;11.452;2023-02-15T04:41:33;-0.30;99.90
30473;DHT22;17263;48.160;11.452;2023-02-15T04:44:00;-0.30;99.90
30473;DHT22;17263;48.160;11.452;2023-02-15T04:46:27;-0.30;99.90
30473;DHT22;17263;48.160;11.452;2023-02-15T04:48:53;-0.30;99.90
30473;DHT22;17263;48.160;11.452;2023-02-15T04:51:19;-0.30;99.90
30473;DHT22;17263;48.160;11.452;2023-02-15T04:53:45;-0.20;99.90
30473;DHT22;17263;48.160;11.452;2023-02-15T04:56:11;-0.20;99.90
30473;DHT22;17263;48.160;11.452;2023-02-15T04:58:37;-0.20;99.90
30473;DHT22;17263;48.160;11.452;2023-02-15T05:01:08;-0.10;99.90
30473;DHT22;17263;48.160;11.452;2023-02-15T05:03:34;-0.20;99.90
30473;DHT22;17263;48.160;11.452;2023-02-15T05:06:00;-0.20;99.90
30473;DHT22;17263;48.160;11.452;2023-02-15T05:08:26;-0.20;99.90
30473;DHT22;17263;48.160;11.452;2023-02-15T05:10:52;-0.10;99.90
30473;DHT22;17263;48.160;11.452;2023-02-15T05:13:18;-0.10;99.90
30473;DHT22;17263;48.160;11.452;2023-02-15T05:15:52;-0.20;99.90
30473;DHT22;17263;48.160;11.452;2023-02-15T05:18:19;-0.10;99.90
30473;DHT22;17263;48.160;11.452;2023-02-15T05:20:46;-0.10;99.90
30473;DHT22;17263;48.160;11.452;2023-02-15T05:23:12;0.00;99.90
30473;DHT22;17263;48.160;11.452;2023-02-15T05:25:38;0.00;99.90
30473;DHT22;17263;48.160;11.452;2023-02-15T05:28:25;0.00;99.90
30473;DHT22;17263;48.160;11.452;2023-02-15T05:33:35;-0.10;99.90
30473;DHT22;17263;48.160;11.452;2023-02-15T05:36:02;-0.10;99.90
30473;DHT22;17263;48.160;11.452;2023-02-15T05:38:28;0.00;99.90
30473;DHT22;17263;48.160;11.452;2023-02-15T05:40:54;-0.10;99.90
30473;DHT22;17263;48.160;11.452;2023-02-15T05:43:21;-0.10;99.90
30473;DHT22;17263;48.160;11.452;2023-02-15T05:45:48;-0.10;99.90
30473;DHT22;17263;48.160;11.452;2023-02-15T05:48:14;-0.10;99.90
30473;DHT22;17263;48.160;11.452;2023-02-15T05:50:40;-0.20;99.90
30473;DHT22;17263;48.160;11.452;2023-02-15T05:53:06;-0.20;99.90
30473;DHT22;17263;48.160;11.452;2023-02-15T05:55:32;-0.20;99.90
30473;DHT22;17263;48.160;11.452;2023-02-15T05:57:58;-0.20;99.90
30473;DHT22;17263;48.160;11.452;2023-02-15T06:00:25;-0.20;99.90
30473;DHT22;17263;48.160;11.452;2023-02-15T06:02:51;-0.20;99.90
30473;DHT22;17263;48.160;11.452;2023-02-15T06:05:17;-0.20;99.90
30473;DHT22;17263;48.160;11.452;2023-02-15T06:07:44;-0.20;99.90
30473;DHT22;17263;48.160;11.452;2023-02-15T06:10:10;-0.20;99.90
30473;DHT22;17263;48.160;11.452;2023-02-15T06:12:36;-0.10;99.90
30473;DHT22;17263;48.160;11.452;2023-02-15T06:15:03;0.00;99.90
30473;DHT22;17263;48.160;11.452;2023-02-15T06:17:29;0.00;99.90
30473;DHT22;17263;48.160;11.452;2023-02-15T06:19:55;0.00;99.90
30473;DHT22;17263;48.160;11.452;2023-02-15T06:22:21;-0.10;99.90
30473;DHT22;17263;48.160;11.452;2023-02-15T06:24:48;-0.10;99.90
30473;DHT22;17263;48.160;11.452;2023-02-15T06:27:14;-0.20;99.90
30473;DHT22;17263;48.160;11.452;2023-02-15T06:29:40;-0.20;99.90
30473;DHT22;17263;48.160;11.452;2023-02-15T06:32:06;-0.20;99.90
30473;DHT22;17263;48.160;11.452;2023-02-15T06:34:32;-0.20;99.90
30473;DHT22;17263;48.160;11.452;2023-02-15T06:36:58;-0.20;99.90
30473;DHT22;17263;48.160;11.452;2023-02-15T06:39:24;-0.20;99.90
30473;DHT22;17263;48.160;11.452;2023-02-15T06:41:50;-0.20;99.90
30473;DHT22;17263;48.160;11.452;2023-02-15T06:44:16;-0.20;99.90
30473;DHT22;17263;48.160;11.452;2023-02-15T06:46:42;-0.20;99.90
30473;DHT22;17263;48.160;11.452;2023-02-15T06:49:09;-0.20;99.90
30473;DHT22;17263;48.160;11.452;2023-02-15T06:51:35;-0.30;99.90
30473;DHT22;17263;48.160;11.452;2023-02-15T06:54:02;-0.30;99.90
30473;DHT22;17263;48.160;11.452;2023-02-15T06:56:28;-0.40;99.90
30473;DHT22;17263;48.160;11.452;2023-02-15T06:58:55;-0.40;99.90
30473;DHT22;17263;48.160;11.452;2023-02-15T07:01:21;-0.30;99.90
30473;DHT22;17263;48.160;11.452;2023-02-15T07:03:47;-0.30;99.90
30473;DHT22;17263;48.160;11.452;2023-02-15T07:06:13;-0.30;99.90
30473;DHT22;17263;48.160;11.452;2023-02-15T07:08:39;-0.30;99.90
30473;DHT22;17263;48.160;11.452;2023-02-15T07:11:06;-0.30;99.90
30473;DHT22;17263;48.160;11.452;2023-02-15T07:13:50;-0.30;99.90
30473;DHT22;17263;48.160;11.452;2023-02-15T07:16:19;-0.30;99.90
30473;DHT22;17263;48.160;11.452;2023-02-15T07:18:45;-0.40;99.90
30473;DHT22;17263;48.160;11.452;2023-02-15T07:21:11;-0.30;99.90
30473;DHT22;17263;48.160;11.452;2023-02-15T07:23:38;-0.30;99.90
30473;DHT22;17263;48.160;11.452;2023-02-15T07:26:05;-0.30;99.90
30473;DHT22;17263;48.160;11.452;2023-02-15T07:28:33;-0.20;99.90
30473;DHT22;17263;48.160;11.452;2023-02-15T07:31:02;-0.20;99.90
30473;DHT22;17263;48.160;11.452;2023-02-15T07:33:30;-0.10;99.90
30473;DHT22;17263;48.160;11.452;2023-02-15T07:35:58;0.00;99.90
30473;DHT22;17263;48.160;11.452;2023-02-15T07:38:31;0.00;99.90
30473;DHT22;17263;48.160;11.452;2023-02-15T07:40:59;-0.10;99.90
30473;DHT22;17263;48.160;11.452;2023-02-15T07:43:25;-0.10;99.90
30473;DHT22;17263;48.160;11.452;2023-02-15T07:45:51;-0.20;99.90
30473;DHT22;17263;48.160;11.452;2023-02-15T07:48:17;-0.10;99.90
30473;DHT22;17263;48.160;11.452;2023-02-15T07:50:43;-0.10;99.90
30473;DHT22;17263;48.160;11.452;2023-02-15T07:53:09;0.00;99.90
30473;DHT22;17263;48.160;11.452;2023-02-15T07:55:35;0.00;99.90
30473;DHT22;17263;48.160;11.452;2023-02-15T07:58:01;0.10;99.90
30473;DHT22;17263;48.160;11.452;2023-02-15T08:00:28;0.20;99.90
30473;DHT22;17263;48.160;11.452;2023-02-15T08:02:55;0.20;99.90
30473;DHT22;17263;48.160;11.452;2023-02-15T08:05:41;0.20;99.90
30473;DHT22;17263;48.160;11.452;2023-02-15T08:08:08;0.30;99.90
30473;DHT22;17263;48.160;11.452;2023-02-15T08:10:37;0.30;99.90
30473;DHT22;17263;48.160;11.452;2023-02-15T08:13:22;0.30;99.90
30473;DHT22;17263;48.160;11.452;2023-02-15T08:15:51;0.30;99.90
30473;DHT22;17263;48.160;11.452;2023-02-15T08:18:17;0.40;99.90
30473;DHT22;17263;48.160;11.452;2023-02-15T08:20:49;0.50;99.90
30473;DHT22;17263;48.160;11.452;2023-02-15T08:23:15;0.40;99.90
30473;DHT22;17263;48.160;11.452;2023-02-15T08:25:41;0.40;99.90
30473;DHT22;17263;48.160;11.452;2023-02-15T08:28:07;0.40;99.90
30473;DHT22;17263;48.160;11.452;2023-02-15T08:30:33;0.40;99.90
30473;DHT22;17263;48.160;11.452;2023-02-15T08:32:59;0.40;99.90
30473;DHT22;17263;48.160;11.452;2023-02-15T08:35:25;0.40;99.90
30473;DHT22;17263;48.160;11.452;2023-02-15T08:37:51;0.40;99.90
30473;DHT22;17263;48.160;11.452;2023-02-15T08:40:17;0.60;99.90
30473;DHT22;17263;48.160;11.452;2023-02-15T08:42:43;0.60;99.90
30473;DHT22;17263;48.160;11.452;2023-02-15T08:45:09;0.70;99.90
30473;DHT22;17263;48.160;11.452;2023-02-15T08:47:35;0.70;99.90
30473;DHT22;17263;48.160;11.452;2023-02-15T08:50:02;0.70;99.90
30473;DHT22;17263;48.160;11.452;2023-02-15T08:52:28;0.70;99.90
30473;DHT22;17263;48.160;11.452;2023-02-15T08:54:54;0.70;99.90
30473;DHT22;17263;48.160;11.452;2023-02-15T08:57:20;0.70;99.90
30473;DHT22;17263;48.160;11.452;2023-02-15T08:59:46;0.70;99.90
30473;DHT22;17263;48.160;11.452;2023-02-15T09:02:12;0.80;99.90
30473;DHT22;17263;48.160;11.452;2023-02-15T09:04:38;0.90;99.90
30473;DHT22;17263;48.160;11.452;2023-02-15T09:07:04;1.00;99.90
30473;DHT22;17263;48.160;11.452;2023-02-15T09:09:30;1.10;99.90
30473;DHT22;17263;48.160;11.452;2023-02-15T09:11:57;1.20;99.90
30473;DHT22;17263;48.160;11.452;2023-02-15T09:14:23;1.20;99.90
30473;DHT22;17263;48.160;11.452;2023-02-15T09:16:52;1.20;99.90
30473;DHT22;17263;48.160;11.452;2023-02-15T09:19:20;1.30;99.90
30473;DHT22;17263;48.160;11.452;2023-02-15T09:21:46;1.30;99.90
30473;DHT22;17263;48.160;11.452;2023-02-15T09:24:14;1.40;99.90
30473;DHT22;17263;48.160;11.452;2023-02-15T09:26:44;1.40;99.90
30473;DHT22;17263;48.160;11.452;2023-02-15T09:29:11;1.40;99.90
30473;DHT22;17263;48.160;11.452;2023-02-15T09:31:40;1.50;99.90
30473;DHT22;17263;48.160;11.452;2023-02-15T09:34:07;1.50;99.90
30473;DHT22;17263;48.160;11.452;2023-02-15T09:36:35;1.50;99.90
30473;DHT22;17263;48.160;11.452;2023-02-15T09:39:16;1.60;99.90
30473;DHT22;17263;48.160;11.452;2023-02-15T09:44:53;1.70;99.90
30473;DHT22;17263;48.160;11.452;2023-02-15T09:55:50;2.10;99.90
30473;DHT22;17263;48.160;11.452;2023-02-15T09:58:46;2.20;99.90
30473;DHT22;17263;48.160;11.452;2023-02-15T10:01:43;2.50;99.90
30473;DHT22;17263;48.160;11.452;2023-02-15T10:04:29;2.70;99.90
30473;DHT22;17263;48.160;11.452;2023-02-15T10:10:14;2.80;99.90
30473;DHT22;17263;48.160;11.452;2023-02-15T10:13:14;2.80;99.90
30473;DHT22;17263;48.160;11.452;2023-02-15T10:16:07;2.80;99.90
30473;DHT22;17263;48.160;11.452;2023-02-15T10:24:23;2.90;99.90
30473;DHT22;17263;48.160;11.452;2023-02-15T10:26:56;2.90;99.90
30473;DHT22;17263;48.160;11.452;2023-02-15T10:29:36;2.90;99.90
30473;DHT22;17263;48.160;11.452;2023-02-15T10:32:10;2.90;99.90
30473;DHT22;17263;48.160;11.452;2023-02-15T10:34:50;3.00;99.90
30473;DHT22;17263;48.160;11.452;2023-02-15T10:37:30;3.10;99.90
30473;DHT22;17263;48.160;11.452;2023-02-15T10:50:46;3.20;99.90
30473;DHT22;17263;48.160;11.452;2023-02-15T10:56:27;3.30;99.90
30473;DHT22;17263;48.160;11.452;2023-02-15T11:04:30;3.60;99.90
30473;DHT22;17263;48.160;11.452;2023-02-15T11:07:16;3.60;99.90
30473;DHT22;17263;48.160;11.452;2023-02-15T11:10:00;3.60;99.90
30473;DHT22;17263;48.160;11.452;2023-02-15T11:12:28;3.70;99.90
30473;DHT22;17263;48.160;11.452;2023-02-15T11:15:28;3.80;99.90
30473;DHT22;17263;48.160;11.452;2023-02-15T11:18:05;3.90;99.90
30473;DHT22;17263;48.160;11.452;2023-02-15T11:20:38;3.90;99.90
30473;DHT22;17263;48.160;11.452;2023-02-15T11:23:15;4.10;99.90
30473;DHT22;17263;48.160;11.452;2023-02-15T11:25:45;4.10;99.90
30473;DHT22;17263;48.160;11.452;2023-02-15T11:28:24;4.30;99.90
30473;DHT22;17263;48.160;11.452;2023-02-15T11:30:55;4.40;99.90
30473;DHT22;17263;48.160;11.452;2023-02-15T11:33:29;4.50;99.90
30473;DHT22;17263;48.160;11.452;2023-02-15T11:36:05;4.60;99.90
30473;DHT22;17263;48.160;11.452;2023-02-15T11:38:33;4.60;99.90
30473;DHT22;17263;48.160;11.452;2023-02-15T11:41:03;4.70;99.90
30473;DHT22;17263;48.160;11.452;2023-02-15T11:43:43;4.80;99.90
30473;DHT22;17263;48.160;11.452;2023-02-15T11:46:13;4.80;99.90
30473;DHT22;17263;48.160;11.452;2023-02-15T11:48:41;4.80;99.90
30473;DHT22;17263;48.160;11.452;2023-02-15T11:51:17;5.00;99.90
30473;DHT22;17263;48.160;11.452;2023-02-15T11:53:45;5.00;99.90
30473;DHT22;17263;48.160;11.452;2023-02-15T11:56:21;5.10;99.90
30473;DHT22;17263;48.160;11.452;2023-02-15T11:59:00;5.10;99.90
30473;DHT22;17263;48.160;11.452;2023-02-15T12:01:46;5.20;99.90
30473;DHT22;17263;48.160;11.452;2023-02-15T12:04:33;5.30;99.90
30473;DHT22;17263;48.160;11.452;2023-02-15T12:12:40;5.50;99.90
30473;DHT22;17263;48.160;11.452;2023-02-15T12:15:11;5.60;99.90
30473;DHT22;17263;48.160;11.452;2023-02-15T12:17:53;5.70;99.90
30473;DHT22;17263;48.160;11.452;2023-02-15T12:20:31;5.70;99.90
30473;DHT22;17263;48.160;11.452;2023-02-15T12:23:04;5.70;99.90
30473;DHT22;17263;48.160;11.452;2023-02-15T12:25:48;5.80;99.90
30473;DHT22;17263;48.160;11.452;2023-02-15T12:28:24;5.80;99.90
30473;DHT22;17263;48.160;11.452;2023-02-15T12:30:52;6.00;99.90
30473;DHT22;17263;48.160;11.452;2023-02-15T12:33:28;6.10;99.90
30473;DHT22;17263;48.160;11.452;2023-02-15T12:38:27;6.10;99.90
30473;DHT22;17263;48.160;11.452;2023-02-15T12:41:00;6.20;99.90
30473;DHT22;17263;48.160;11.452;2023-02-15T12:43:37;6.30;99.90
30473;DHT22;17263;48.160;11.452;2023-02-15T12:46:22;6.40;99.90
30473;DHT22;17263;48.160;11.452;2023-02-15T12:49:16;6.50;99.90
30473;DHT22;17263;48.160;11.452;2023-02-15T12:51:49;6.50;99.90
30473;DHT22;17263;48.160;11.452;2023-02-15T12:54:42;6.60;99.90
30473;DHT22;17263;48.160;11.452;2023-02-15T13:00:00;6.80;99.90
30473;DHT22;17263;48.160;11.452;2023-02-15T13:07:55;6.90;99.90
30473;DHT22;17263;48.160;11.452;2023-02-15T13:10:33;7.00;99.90
30473;DHT22;17263;48.160;11.452;2023-02-15T13:13:00;6.90;99.90
30473;DHT22;17263;48.160;11.452;2023-02-15T13:15:35;6.90;99.90
30473;DHT22;17263;48.160;11.452;2023-02-15T13:18:02;7.00;99.90
30473;DHT22;17263;48.160;11.452;2023-02-15T13:20:29;7.00;99.90
30473;DHT22;17263;48.160;11.452;2023-02-15T13:23:03;7.00;99.90
30473;DHT22;17263;48.160;11.452;2023-02-15T13:25:43;7.00;99.90
30473;DHT22;17263;48.160;11.452;2023-02-15T13:28:14;7.00;99.90
30473;DHT22;17263;48.160;11.452;2023-02-15T13:30:44;6.90;99.90
30473;DHT22;17263;48.160;11.452;2023-02-15T13:33:25;6.90;99.90
30473;DHT22;17263;48.160;11.452;2023-02-15T13:36:08;6.90;99.90
30473;DHT22;17263;48.160;11.452;2023-02-15T13:38:45;6.90;99.90
30473;DHT22;17263;48.160;11.452;2023-02-15T13:41:20;6.90;99.90
30473;DHT22;17263;48.160;11.452;2023-02-15T13:55:57;6.80;99.90
30473;DHT22;17263;48.160;11.452;2023-02-15T14:01:06;6.90;99.90
30473;DHT22;17263;48.160;11.452;2023-02-15T14:04:22;6.80;99.90
30473;DHT22;17263;48.160;11.452;2023-02-15T14:12:31;6.80;99.90
30473;DHT22;17263;48.160;11.452;2023-02-15T14:15:07;6.70;99.90
30473;DHT22;17263;48.160;11.452;2023-02-15T14:17:43;6.80;99.90
30473;DHT22;17263;48.160;11.452;2023-02-15T14:23:19;6.70;99.90
30473;DHT22;17263;48.160;11.452;2023-02-15T14:26:32;6.60;99.90
30473;DHT22;17263;48.160;11.452;2023-02-15T14:29:25;6.60;99.90
30473;DHT22;17263;48.160;11.452;2023-02-15T14:31:57;6.50;99.90
30473;DHT22;17263;48.160;11.452;2023-02-15T14:34:34;6.50;99.90
30473;DHT22;17263;48.160;11.452;2023-02-15T14:37:02;6.50;99.90
30473;DHT22;17263;48.160;11.452;2023-02-15T14:39:44;6.40;99.90
30473;DHT22;17263;48.160;11.452;2023-02-15T14:42:43;6.50;99.90
30473;DHT22;17263;48.160;11.452;2023-02-15T14:45:19;6.50;99.90
30473;DHT22;17263;48.160;11.452;2023-02-15T14:47:56;6.60;99.90
30473;DHT22;17263;48.160;11.452;2023-02-15T14:50:38;6.60;99.90
30473;DHT22;17263;48.160;11.452;2023-02-15T14:56:25;6.60;99.90
30473;DHT22;17263;48.160;11.452;2023-02-15T15:04:00;6.40;99.90
30473;DHT22;17263;48.160;11.452;2023-02-15T15:06:31;6.30;99.90
30473;DHT22;17263;48.160;11.452;2023-02-15T15:09:27;6.30;99.90
30473;DHT22;17263;48.160;11.452;2023-02-15T15:11:55;6.30;99.90
30473;DHT22;17263;48.160;11.452;2023-02-15T15:14:40;6.20;99.90
30473;DHT22;17263;48.160;11.452;2023-02-15T15:17:10;6.30;99.90
30473;DHT22;17263;48.160;11.452;2023-02-15T15:22:22;6.10;99.90
30473;DHT22;17263;48.160;11.452;2023-02-15T15:25:10;6.00;99.90
30473;DHT22;17263;48.160;11.452;2023-02-15T15:27:43;5.90;99.90
30473;DHT22;17263;48.160;11.452;2023-02-15T15:32:47;5.80;99.90
30473;DHT22;17263;48.160;11.452;2023-02-15T15:39:20;5.60;99.90
30473;DHT22;17263;48.160;11.452;2023-02-15T15:49:58;5.40;99.90
30473;DHT22;17263;48.160;11.452;2023-02-15T15:52:26;5.20;99.90
30473;DHT22;17263;48.160;11.452;2023-02-15T15:55:03;5.10;99.90
30473;DHT22;17263;48.160;11.452;2023-02-15T15:57:35;5.00;99.90
30473;DHT22;17263;48.160;11.452;2023-02-15T16:00:04;4.90;99.90
30473;DHT22;17263;48.160;11.452;2023-02-15T16:02:51;4.80;99.90
30473;DHT22;17263;48.160;11.452;2023-02-15T16:05:17;4.70;99.90
30473;DHT22;17263;48.160;11.452;2023-02-15T16:07:43;4.70;99.90
30473;DHT22;17263;48.160;11.452;2023-02-15T16:10:27;4.70;99.90
30473;DHT22;17263;48.160;11.452;2023-02-15T16:12:54;4.60;99.90
30473;DHT22;17263;48.160;11.452;2023-02-15T16:15:24;4.50;99.90
30473;DHT22;17263;48.160;11.452;2023-02-15T16:17:53;4.40;99.90
30473;DHT22;17263;48.160;11.452;2023-02-15T16:28:50;4.00;99.90
30473;DHT22;17263;48.160;11.452;2023-02-15T16:31:17;3.80;99.90
30473;DHT22;17263;48.160;11.452;2023-02-15T16:33:44;3.70;99.90
30473;DHT22;17263;48.160;11.452;2023-02-15T16:36:22;3.60;99.90
30473;DHT22;17263;48.160;11.452;2023-02-15T16:41:35;3.40;99.90
30473;DHT22;17263;48.160;11.452;2023-02-15T16:44:16;3.30;99.90
30473;DHT22;17263;48.160;11.452;2023-02-15T16:46:44;3.10;99.90
30473;DHT22;17263;48.160;11.452;2023-02-15T16:49:43;3.10;99.90
30473;DHT22;17263;48.160;11.452;2023-02-15T16:52:14;3.10;99.90
30473;DHT22;17263;48.160;11.452;2023-02-15T16:54:41;3.00;99.90
30473;DHT22;17263;48.160;11.452;2023-02-15T16:57:19;2.90;99.90
30473;DHT22;17263;48.160;11.452;2023-02-15T16:59:48;2.80;99.90
30473;DHT22;17263;48.160;11.452;2023-02-15T17:02:29;2.80;99.90
30473;DHT22;17263;48.160;11.452;2023-02-15T17:05:30;2.70;99.90
30473;DHT22;17263;48.160;11.452;2023-02-15T17:08:05;2.50;99.90
30473;DHT22;17263;48.160;11.452;2023-02-15T17:10:36;2.50;99.90
30473;DHT22;17263;48.160;11.452;2023-02-15T17:13:17;2.40;99.90
30473;DHT22;17263;48.160;11.452;2023-02-15T17:15:44;2.30;99.90
30473;DHT22;17263;48.160;11.452;2023-02-15T17:18:23;2.20;99.90
30473;DHT22;17263;48.160;11.452;2023-02-15T17:20:52;2.20;99.90
30473;DHT22;17263;48.160;11.452;2023-02-15T17:25:54;2.00;99.90
30473;DHT22;17263;48.160;11.452;2023-02-15T17:28:27;2.00;99.90
30473;DHT22;17263;48.160;11.452;2023-02-15T17:30:55;2.00;99.90
30473;DHT22;17263;48.160;11.452;2023-02-15T17:33:24;1.90;99.90
30473;DHT22;17263;48.160;11.452;2023-02-15T17:38:38;1.80;99.90
30473;DHT22;17263;48.160;11.452;2023-02-15T17:41:05;1.80;99.90
30473;DHT22;17263;48.160;11.452;2023-02-15T17:43:31;1.70;99.90
30473;DHT22;17263;48.160;11.452;2023-02-15T17:45:57;1.60;99.90
30473;DHT22;17263;48.160;11.452;2023-02-15T17:48:35;1.60;99.90
30473;DHT22;17263;48.160;11.452;2023-02-15T17:51:03;1.60;99.90
30473;DHT22;17263;48.160;11.452;2023-02-15T17:53:30;1.50;99.90
30473;DHT22;17263;48.160;11.452;2023-02-15T17:55:57;1.50;99.90
30473;DHT22;17263;48.160;11.452;2023-02-15T17:58:23;1.40;99.90
30473;DHT22;17263;48.160;11.452;2023-02-15T18:00:51;1.40;99.90
30473;DHT22;17263;48.160;11.452;2023-02-15T18:03:42;1.30;99.90
30473;DHT22;17263;48.160;11.452;2023-02-15T18:06:27;1.30;99.90
30473;DHT22;17263;48.160;11.452;2023-02-15T18:09:14;1.20;99.90
30473;DHT22;17263;48.160;11.452;2023-02-15T18:12:00;1.20;99.90
30473;DHT22;17263;48.160;11.452;2023-02-15T18:14:27;1.10;99.90
30473;DHT22;17263;48.160;11.452;2023-02-15T18:16:53;1.20;99.90
30473;DHT22;17263;48.160;11.452;2023-02-15T18:19:26;1.20;99.90
30473;DHT22;17263;48.160;11.452;2023-02-15T18:21:52;1.10;99.90
30473;DHT22;17263;48.160;11.452;2023-02-15T18:24:23;1.10;99.90
30473;DHT22;17263;48.160;11.452;2023-02-15T18:26:53;1.10;99.90
30473;DHT22;17263;48.160;11.452;2023-02-15T18:29:20;1.10;99.90